Time;durP1;ratioP1;P1;durP2;ratioP2;P2;SDS_P1;SDS_P2;PMS_P1;PMS_P2;Temp;Humidity;BMP_temperature;BMP_pressure;BME280_temperature;BME280_humidity;BME280_pressure;Samples;Min_cycle;Max_cycle;Signal;HPM_P1;HPM_P2
2023/12/25 00:00:34;;;;;;;7.38;6.68;;;;;;;;;;5114117;27;20133;-76
2023/12/25 00:03:01;;;;;;;7.07;6.38;;;;;;;;;;5114052;27;20031;-75
2023/12/25 00:05:27;;;;;;;7.28;5.93;;;;;;;;;;5132601;27;20034;-75
2023/12/25 00:07:53;;;;;;;9.35;8.38;;;;;;;;;;5131411;27;20031;-76
2023/12/25 00:10:19;;;;;;;7.00;6.40;;;;;;;;;;5096896;27;20684;-75
2023/12/25 00:12:44;;;;;;;9.85;9.00;;;;;;;;;;5112892;27;20043;-74
2023/12/25 00:15:10;;;;;;;7.95;7.15;;;;;;;;;;5132007;27;20134;-75
2023/12/25 00:17:36;;;;;;;8.45;7.68;;;;;;;;;;5113784;27;20032;-75
2023/12/25 00:20:03;;;;;;;9.20;8.40;;;;;;;;;;5114794;27;20030;-75
2023/12/25 00:22:30;;;;;;;10.55;9.68;;;;;;;;;;5132108;27;20026;-75
2023/12/25 00:24:56;;;;;;;9.48;8.57;;;;;;;;;;5097455;27;20055;-76
2023/12/25 00:27:23;;;;;;;5.97;5.47;;;;;;;;;;5113726;27;20062;-76
2023/12/25 00:29:50;;;;;;;7.40;6.70;;;;;;;;;;5113317;27;20046;-75
2023/12/25 00:32:16;;;;;;;7.20;6.53;;;;;;;;;;5114456;27;20499;-74
2023/12/25 00:34:42;;;;;;;7.22;6.22;;;;;;;;;;5131591;27;20114;-76
2023/12/25 00:37:08;;;;;;;6.45;5.80;;;;;;;;;;5131521;27;20059;-77
2023/12/25 00:39:36;;;;;;;7.03;6.38;;;;;;;;;;5113632;27;20035;-75
2023/12/25 00:42:02;;;;;;;6.32;5.68;;;;;;;;;;5113687;27;20036;-76
2023/12/25 00:44:28;;;;;;;7.82;7.13;;;;;;;;;;5132256;27;20030;-77
2023/12/25 00:46:54;;;;;;;6.30;5.80;;;;;;;;;;5113262;27;20043;-77
2023/12/25 00:49:20;;;;;;;7.93;4.15;;;;;;;;;;5096552;27;20039;-77
2023/12/25 00:51:47;;;;;;;7.70;6.95;;;;;;;;;;5131637;27;20039;-77
2023/12/25 00:54:13;;;;;;;6.80;6.20;;;;;;;;;;5112524;27;20046;-75
2023/12/25 00:56:39;;;;;;;7.18;6.47;;;;;;;;;;5096151;27;20024;-76
2023/12/25 00:59:05;;;;;;;8.80;7.90;;;;;;;;;;5114089;27;20027;-77
2023/12/25 01:01:30;;;;;;;6.32;5.72;;;;;;;;;;5111619;27;20031;-76
2023/12/25 01:03:57;;;;;;;4.97;4.57;;;;;;;;;;5113695;27;20411;-77
2023/12/25 01:06:22;;;;;;;4.88;4.43;;;;;;;;;;5113015;27;20042;-77
2023/12/25 01:08:48;;;;;;;6.53;5.97;;;;;;;;;;5108943;27;20031;-79
2023/12/25 01:11:14;;;;;;;5.72;5.22;;;;;;;;;;5113590;27;20035;-78
2023/12/25 01:13:40;;;;;;;5.10;4.70;;;;;;;;;;5113707;27;20119;-77
2023/12/25 01:16:06;;;;;;;6.80;6.20;;;;;;;;;;5132671;27;20069;-76
2023/12/25 01:18:32;;;;;;;6.50;5.90;;;;;;;;;;5112783;27;20031;-76
2023/12/25 01:20:58;;;;;;;5.78;5.22;;;;;;;;;;5112976;27;20023;-77
2023/12/25 01:23:24;;;;;;;6.65;5.35;;;;;;;;;;5079227;27;20039;-76
2023/12/25 01:25:51;;;;;;;6.85;5.10;;;;;;;;;;5113104;27;20031;-77
2023/12/25 01:28:17;;;;;;;5.22;4.82;;;;;;;;;;5097911;27;20027;-76
2023/12/25 01:30:43;;;;;;;6.43;5.82;;;;;;;;;;5113155;27;20605;-78
2023/12/25 01:33:09;;;;;;;5.47;4.97;;;;;;;;;;5147761;27;20039;-76
2023/12/25 01:35:34;;;;;;;6.25;5.65;;;;;;;;;;5114468;27;20035;-78
2023/12/25 01:38:00;;;;;;;5.60;5.10;;;;;;;;;;5115304;27;20031;-82
2023/12/25 01:40:26;;;;;;;6.43;5.82;;;;;;;;;;5113505;27;20491;-76
2023/12/25 01:42:54;;;;;;;6.43;5.38;;;;;;;;;;5113942;27;20038;-78
2023/12/25 01:45:20;;;;;;;5.97;5.47;;;;;;;;;;5095229;27;20068;-78
2023/12/25 01:47:46;;;;;;;7.63;5.43;;;;;;;;;;5112883;27;20368;-76
2023/12/25 01:50:12;;;;;;;5.70;5.30;;;;;;;;;;5111963;27;20113;-77
2023/12/25 01:52:39;;;;;;;4.93;4.53;;;;;;;;;;5112024;27;20096;-77
2023/12/25 01:55:05;;;;;;;6.28;5.68;;;;;;;;;;5113349;27;20121;-76
2023/12/25 01:57:34;;;;;;;4.05;3.75;;;;;;;;;;5130337;27;20035;-77
2023/12/25 02:00:00;;;;;;;5.70;5.20;;;;;;;;;;5075329;28;20777;-76
2023/12/25 02:02:26;;;;;;;4.38;4.05;;;;;;;;;;5091876;27;20110;-77
2023/12/25 02:04:52;;;;;;;5.72;5.32;;;;;;;;;;5130189;27;20031;-77
2023/12/25 02:07:18;;;;;;;5.10;4.40;;;;;;;;;;5111994;27;20030;-76
2023/12/25 02:09:48;;;;;;;5.50;5.07;;;;;;;;;;5112879;27;20056;-77
2023/12/25 02:12:14;;;;;;;5.43;4.95;;;;;;;;;;5111386;27;20023;-76
2023/12/25 02:14:40;;;;;;;5.00;4.60;;;;;;;;;;5094616;27;20172;-77
2023/12/25 02:17:06;;;;;;;4.45;4.15;;;;;;;;;;5094616;27;20506;-76
2023/12/25 02:19:38;;;;;;;4.90;4.50;;;;;;;;;;5094491;27;20047;-77
2023/12/25 02:22:07;;;;;;;5.32;4.13;;;;;;;;;;5096200;27;20043;-77
2023/12/25 02:24:35;;;;;;;8.48;5.20;;;;;;;;;;5061576;27;20027;-78
2023/12/25 02:27:01;;;;;;;4.93;4.53;;;;;;;;;;5129868;27;20023;-77
2023/12/25 02:29:27;;;;;;;5.80;5.22;;;;;;;;;;5094172;27;20042;-77
2023/12/25 02:31:53;;;;;;;5.72;5.22;;;;;;;;;;5111220;27;20545;-77
2023/12/25 02:34:19;;;;;;;6.97;6.38;;;;;;;;;;5093591;27;20047;-76
2023/12/25 02:36:44;;;;;;;6.45;5.85;;;;;;;;;;5111237;27;20507;-76
2023/12/25 02:39:10;;;;;;;7.18;6.53;;;;;;;;;;5129223;27;20152;-76
2023/12/25 02:41:36;;;;;;;8.63;6.88;;;;;;;;;;5128167;27;20030;-76
2023/12/25 02:44:02;;;;;;;7.78;6.22;;;;;;;;;;5130736;27;20521;-77
2023/12/25 02:46:28;;;;;;;10.10;7.75;;;;;;;;;;5129317;27;20126;-77
2023/12/25 02:48:54;;;;;;;10.95;8.75;;;;;;;;;;5110898;27;20542;-77
2023/12/25 02:51:20;;;;;;;7.13;6.50;;;;;;;;;;5129372;27;20085;-77
2023/12/25 02:53:46;;;;;;;8.45;6.93;;;;;;;;;;5129192;27;20042;-77
2023/12/25 02:56:12;;;;;;;8.48;7.28;;;;;;;;;;5130070;27;20080;-76
2023/12/25 02:58:38;;;;;;;6.40;5.72;;;;;;;;;;5130586;27;20039;-77
2023/12/25 03:01:04;;;;;;;4.68;4.25;;;;;;;;;;5110736;27;20062;-77
2023/12/25 03:03:31;;;;;;;6.50;5.82;;;;;;;;;;5110844;27;20046;-76
2023/12/25 03:05:57;;;;;;;8.02;7.32;;;;;;;;;;5077051;27;20035;-75
2023/12/25 03:08:24;;;;;;;5.93;5.30;;;;;;;;;;5093646;27;20042;-76
2023/12/25 03:10:50;;;;;;;7.78;6.63;;;;;;;;;;5112295;27;20027;-76
2023/12/25 03:13:15;;;;;;;7.38;6.65;;;;;;;;;;5093338;27;20448;-77
2023/12/25 03:15:41;;;;;;;7.55;5.40;;;;;;;;;;5093587;27;20027;-77
2023/12/25 03:18:07;;;;;;;5.72;5.22;;;;;;;;;;5110601;27;20038;-78
2023/12/25 03:20:33;;;;;;;3.15;2.95;;;;;;;;;;5111769;27;20028;-78
2023/12/25 03:22:59;;;;;;;6.78;6.07;;;;;;;;;;5078472;27;20080;-76
2023/12/25 03:25:25;;;;;;;5.20;4.07;;;;;;;;;;5108630;27;20537;-77
2023/12/25 03:27:52;;;;;;;8.13;5.60;;;;;;;;;;5095457;27;20513;-75
2023/12/25 03:30:17;;;;;;;8.30;7.50;;;;;;;;;;5128995;27;20024;-77
2023/12/25 03:32:45;;;;;;;5.18;4.78;;;;;;;;;;5111961;27;20054;-77
2023/12/25 03:35:10;;;;;;;7.20;6.43;;;;;;;;;;5134178;27;20031;-76
2023/12/25 03:37:36;;;;;;;8.73;7.22;;;;;;;;;;5106706;27;20647;-77
2023/12/25 03:40:02;;;;;;;7.53;6.82;;;;;;;;;;5134871;27;20384;-77
2023/12/25 03:42:30;;;;;;;8.90;6.63;;;;;;;;;;5103615;28;20065;-77
2023/12/25 03:44:56;;;;;;;10.70;8.82;;;;;;;;;;5123440;28;20031;-76
2023/12/25 03:47:22;;;;;;;9.93;8.57;;;;;;;;;;5134956;27;20088;-77
2023/12/25 03:49:47;;;;;;;9.68;7.82;;;;;;;;;;5094434;27;20039;-77
2023/12/25 03:52:13;;;;;;;6.78;6.07;;;;;;;;;;5094700;27;20031;-77
2023/12/25 03:54:39;;;;;;;6.60;6.00;;;;;;;;;;5111438;27;20104;-75
2023/12/25 03:57:08;;;;;;;5.07;4.68;;;;;;;;;;5094282;27;20094;-76
2023/12/25 03:59:34;;;;;;;3.50;3.30;;;;;;;;;;5092674;27;20110;-76
2023/12/25 04:02:00;;;;;;;5.43;4.80;;;;;;;;;;5109100;27;20570;-75
2023/12/25 04:04:26;;;;;;;5.05;4.65;;;;;;;;;;5108843;27;20028;-75
2023/12/25 04:06:52;;;;;;;5.93;5.32;;;;;;;;;;5111326;27;20058;-77
2023/12/25 04:09:18;;;;;;;5.25;4.35;;;;;;;;;;5128159;27;20470;-75
2023/12/25 04:11:44;;;;;;;4.35;4.03;;;;;;;;;;5109535;27;20031;-76
2023/12/25 04:14:10;;;;;;;4.30;4.00;;;;;;;;;;5109515;27;20039;-78
2023/12/25 04:16:36;;;;;;;4.38;3.97;;;;;;;;;;5110236;28;20036;-76
2023/12/25 04:19:02;;;;;;;5.32;4.82;;;;;;;;;;5094367;27;20473;-76
2023/12/25 04:21:28;;;;;;;3.35;3.15;;;;;;;;;;5096647;27;20112;-76
2023/12/25 04:23:54;;;;;;;4.78;4.47;;;;;;;;;;5119159;27;20031;-77
2023/12/25 04:26:21;;;;;;;4.85;4.38;;;;;;;;;;5120594;27;20031;-77
2023/12/25 04:28:47;;;;;;;4.95;4.55;;;;;;;;;;5136975;27;20035;-78
2023/12/25 04:31:14;;;;;;;5.55;4.70;;;;;;;;;;5070121;27;20035;-77
2023/12/25 04:33:41;;;;;;;5.60;5.13;;;;;;;;;;5113487;27;20200;-77
2023/12/25 04:36:06;;;;;;;5.82;5.32;;;;;;;;;;5130273;27;20110;-77
2023/12/25 04:38:32;;;;;;;3.90;3.58;;;;;;;;;;5097224;27;20046;-76
2023/12/25 04:40:58;;;;;;;4.72;3.70;;;;;;;;;;5114333;27;20103;-77
2023/12/25 04:43:25;;;;;;;5.45;4.95;;;;;;;;;;5112932;27;20133;-76
2023/12/25 04:45:51;;;;;;;4.07;3.72;;;;;;;;;;5114592;27;20172;-75
2023/12/25 04:48:17;;;;;;;5.28;4.80;;;;;;;;;;5113178;27;20031;-76
2023/12/25 04:50:43;;;;;;;5.63;5.15;;;;;;;;;;5113243;27;20023;-76
2023/12/25 04:53:10;;;;;;;6.38;4.43;;;;;;;;;;5096150;27;20042;-76
2023/12/25 04:55:36;;;;;;;5.70;4.63;;;;;;;;;;5113676;27;20023;-77
2023/12/25 04:58:02;;;;;;;5.75;5.20;;;;;;;;;;5114744;27;20118;-76
2023/12/25 05:00:28;;;;;;;6.03;5.53;;;;;;;;;;5113672;27;20103;-77
2023/12/25 05:02:54;;;;;;;5.10;4.45;;;;;;;;;;5126228;27;20092;-77
2023/12/25 05:05:19;;;;;;;3.25;3.05;;;;;;;;;;5078297;27;20027;-78
2023/12/25 05:07:46;;;;;;;4.40;4.05;;;;;;;;;;5111913;27;20114;-78
2023/12/25 05:10:11;;;;;;;5.78;5.28;;;;;;;;;;5114767;27;20052;-77
2023/12/25 05:12:37;;;;;;;4.05;3.65;;;;;;;;;;5132107;27;20043;-77
2023/12/25 05:15:03;;;;;;;4.30;4.00;;;;;;;;;;5113439;27;20035;-77
2023/12/25 05:17:30;;;;;;;5.68;5.18;;;;;;;;;;5112068;27;20441;-76
2023/12/25 05:19:56;;;;;;;3.30;3.10;;;;;;;;;;5119930;27;20035;-77
2023/12/25 05:22:22;;;;;;;2.90;2.70;;;;;;;;;;5118754;27;20039;-76
2023/12/25 05:24:48;;;;;;;4.50;4.10;;;;;;;;;;5117761;27;20031;-77
2023/12/25 05:27:14;;;;;;;5.15;4.75;;;;;;;;;;5112778;27;20035;-77
2023/12/25 05:29:39;;;;;;;4.80;4.40;;;;;;;;;;5131368;27;20031;-75
2023/12/25 05:32:05;;;;;;;4.10;3.80;;;;;;;;;;5112508;27;20565;-77
2023/12/25 05:34:32;;;;;;;4.90;4.50;;;;;;;;;;5111993;27;20039;-76
2023/12/25 05:36:58;;;;;;;5.80;4.93;;;;;;;;;;5113115;27;20055;-77
2023/12/25 05:39:27;;;;;;;5.30;4.82;;;;;;;;;;5131011;27;20134;-76
2023/12/25 05:41:53;;;;;;;6.05;5.53;;;;;;;;;;5131058;27;20058;-77
2023/12/25 05:44:19;;;;;;;4.22;3.92;;;;;;;;;;5131185;27;20039;-77
2023/12/25 05:46:45;;;;;;;4.35;4.03;;;;;;;;;;5111869;27;20042;-76
2023/12/25 05:49:11;;;;;;;5.22;4.82;;;;;;;;;;5111294;27;20038;-77
2023/12/25 05:51:38;;;;;;;4.00;3.80;;;;;;;;;;5130446;27;20031;-76
2023/12/25 05:54:04;;;;;;;3.50;3.30;;;;;;;;;;5097725;27;20047;-76
2023/12/25 05:56:30;;;;;;;4.93;4.53;;;;;;;;;;5130363;27;20046;-78
2023/12/25 05:58:56;;;;;;;3.95;3.65;;;;;;;;;;5112327;27;20027;-77
2023/12/25 06:01:21;;;;;;;4.45;4.10;;;;;;;;;;5127100;27;20031;-69
2023/12/25 06:03:47;;;;;;;3.97;3.67;;;;;;;;;;5128860;27;20488;-69
2023/12/25 06:06:13;;;;;;;4.93;4.55;;;;;;;;;;5124009;27;20026;-68
2023/12/25 06:08:39;;;;;;;3.65;3.35;;;;;;;;;;5128510;27;20279;-69
2023/12/25 06:11:05;;;;;;;5.40;4.82;;;;;;;;;;5129380;27;20023;-69
2023/12/25 06:13:31;;;;;;;4.97;4.68;;;;;;;;;;5077536;27;20096;-69
2023/12/25 06:15:56;;;;;;;4.82;4.53;;;;;;;;;;5093526;27;20026;-69
2023/12/25 06:18:22;;;;;;;4.38;4.03;;;;;;;;;;5129380;27;20043;-70
2023/12/25 06:20:48;;;;;;;3.75;3.35;;;;;;;;;;5111759;27;20087;-69
2023/12/25 06:23:14;;;;;;;5.55;5.18;;;;;;;;;;5129511;27;20031;-70
2023/12/25 06:25:40;;;;;;;6.30;5.80;;;;;;;;;;5128850;27;20031;-69
2023/12/25 06:28:06;;;;;;;3.65;3.45;;;;;;;;;;5121934;27;20027;-71
2023/12/25 06:30:32;;;;;;;5.45;5.07;;;;;;;;;;5129095;27;20103;-70
2023/12/25 06:32:58;;;;;;;4.50;4.10;;;;;;;;;;5097610;28;20056;-71
2023/12/25 06:35:24;;;;;;;4.68;4.22;;;;;;;;;;5096185;27;20043;-69
2023/12/25 06:37:49;;;;;;;6.03;4.60;;;;;;;;;;5095763;28;20051;-72
2023/12/25 06:40:15;;;;;;;4.50;4.20;;;;;;;;;;5092249;28;20027;-72
2023/12/25 06:42:41;;;;;;;4.50;4.20;;;;;;;;;;5087747;28;20028;-72
2023/12/25 06:45:08;;;;;;;5.03;4.63;;;;;;;;;;5098083;28;20036;-72
2023/12/25 06:47:34;;;;;;;2.92;2.72;;;;;;;;;;5071478;28;20036;-70
2023/12/25 06:50:00;;;;;;;6.03;5.63;;;;;;;;;;5073813;28;20036;-71
2023/12/25 06:52:26;;;;;;;4.72;4.40;;;;;;;;;;5094495;28;20020;-71
2023/12/25 06:54:51;;;;;;;4.85;4.45;;;;;;;;;;5099367;28;20499;-72
2023/12/25 06:57:17;;;;;;;4.30;3.90;;;;;;;;;;5094940;28;20055;-71
2023/12/25 06:59:43;;;;;;;4.90;4.50;;;;;;;;;;5097430;28;20035;-71
2023/12/25 07:02:09;;;;;;;4.28;3.28;;;;;;;;;;5088013;28;20028;-71
2023/12/25 07:04:35;;;;;;;4.43;4.10;;;;;;;;;;5101263;28;20562;-71
2023/12/25 07:07:01;;;;;;;5.55;5.15;;;;;;;;;;5094571;28;20119;-70
2023/12/25 07:09:27;;;;;;;4.95;4.45;;;;;;;;;;5096919;28;20127;-70
2023/12/25 07:11:53;;;;;;;4.38;3.97;;;;;;;;;;5092750;28;20024;-70
2023/12/25 07:14:18;;;;;;;5.10;4.60;;;;;;;;;;5093236;28;20055;-71
2023/12/25 07:16:44;;;;;;;5.25;4.80;;;;;;;;;;5099531;28;20511;-72
2023/12/25 07:19:10;;;;;;;6.68;6.03;;;;;;;;;;5096158;28;20491;-70
2023/12/25 07:21:36;;;;;;;2.72;2.63;;;;;;;;;;5094113;28;20046;-70
2023/12/25 07:24:02;;;;;;;4.78;4.38;;;;;;;;;;5098603;28;20384;-69
2023/12/25 07:26:28;;;;;;;5.97;5.45;;;;;;;;;;5094644;28;20024;-72
2023/12/25 07:28:54;;;;;;;5.15;4.78;;;;;;;;;;5092287;28;20376;-70
2023/12/25 07:31:23;;;;;;;5.60;5.10;;;;;;;;;;5097517;28;20140;-70
2023/12/25 07:33:50;;;;;;;4.90;4.53;;;;;;;;;;5096444;28;20067;-72
2023/12/25 07:36:16;;;;;;;6.25;5.75;;;;;;;;;;5093214;28;20039;-71
2023/12/25 07:38:42;;;;;;;4.35;4.05;;;;;;;;;;5098681;28;20032;-70
2023/12/25 07:41:09;;;;;;;5.82;4.18;;;;;;;;;;5097940;28;20024;-70
2023/12/25 07:43:36;;;;;;;5.53;5.13;;;;;;;;;;5089455;28;20040;-69
2023/12/25 07:46:05;;;;;;;4.53;4.22;;;;;;;;;;5085035;28;20031;-71
2023/12/25 07:48:31;;;;;;;3.00;2.83;;;;;;;;;;5088002;28;20036;-71
2023/12/25 07:50:57;;;;;;;5.05;4.65;;;;;;;;;;5068011;28;20032;-71
2023/12/25 07:53:23;;;;;;;5.95;5.30;;;;;;;;;;5090357;28;20575;-70
2023/12/25 07:55:49;;;;;;;5.97;5.47;;;;;;;;;;5083561;28;20053;-70
2023/12/25 07:58:14;;;;;;;6.03;5.43;;;;;;;;;;5082171;28;20028;-71
2023/12/25 08:00:42;;;;;;;6.97;5.88;;;;;;;;;;5087189;28;20070;-71
2023/12/25 08:03:09;;;;;;;6.25;5.75;;;;;;;;;;5089570;28;20452;-69
2023/12/25 08:05:34;;;;;;;5.65;4.65;;;;;;;;;;5090367;28;20047;-70
2023/12/25 08:08:00;;;;;;;5.50;5.00;;;;;;;;;;5088743;28;20594;-71
2023/12/25 08:10:26;;;;;;;7.50;6.68;;;;;;;;;;5086506;28;20086;-71
2023/12/25 08:12:52;;;;;;;5.63;5.00;;;;;;;;;;5089232;28;20563;-71
2023/12/25 08:15:18;;;;;;;4.40;4.10;;;;;;;;;;5069441;28;20039;-70
2023/12/25 08:17:44;;;;;;;3.83;3.53;;;;;;;;;;5096951;28;20036;-69
2023/12/25 08:20:10;;;;;;;6.60;6.00;;;;;;;;;;5058209;28;20028;-71
2023/12/25 08:22:36;;;;;;;7.03;6.43;;;;;;;;;;5093609;28;20035;-71
2023/12/25 08:25:03;;;;;;;5.63;5.13;;;;;;;;;;5096656;28;20028;-71
2023/12/25 08:27:29;;;;;;;6.53;4.38;;;;;;;;;;5093532;28;20054;-68
2023/12/25 08:29:55;;;;;;;6.47;5.97;;;;;;;;;;5101267;28;20171;-70
2023/12/25 08:32:21;;;;;;;4.93;4.45;;;;;;;;;;5097255;28;20103;-68
2023/12/25 08:34:47;;;;;;;7.13;5.57;;;;;;;;;;5101696;28;20062;-69
2023/12/25 08:37:13;;;;;;;6.63;6.13;;;;;;;;;;5102752;28;20038;-69
2023/12/25 08:39:38;;;;;;;4.90;3.40;;;;;;;;;;5099825;28;20047;-69
2023/12/25 08:42:05;;;;;;;6.18;5.68;;;;;;;;;;5078884;28;20020;-71
2023/12/25 08:44:34;;;;;;;6.85;6.25;;;;;;;;;;5094352;28;20064;-71
2023/12/25 08:47:00;;;;;;;6.70;6.10;;;;;;;;;;5093847;28;20028;-72
2023/12/25 08:49:26;;;;;;;5.10;4.60;;;;;;;;;;5092784;28;20584;-70
2023/12/25 08:51:52;;;;;;;5.75;5.00;;;;;;;;;;5091428;28;20028;-71
2023/12/25 08:54:18;;;;;;;5.88;5.38;;;;;;;;;;5099673;28;20047;-70
2023/12/25 08:56:43;;;;;;;4.43;4.13;;;;;;;;;;5090172;28;20058;-70
2023/12/25 08:59:09;;;;;;;5.43;4.82;;;;;;;;;;5073719;28;20032;-71
2023/12/25 09:01:35;;;;;;;8.25;7.55;;;;;;;;;;5098727;28;20395;-70
2023/12/25 09:04:01;;;;;;;6.38;5.78;;;;;;;;;;5094519;28;20040;-72
2023/12/25 09:06:27;;;;;;;4.70;4.40;;;;;;;;;;5090553;28;20076;-70
2023/12/25 09:08:53;;;;;;;4.60;4.20;;;;;;;;;;5093724;28;20047;-71
2023/12/25 09:11:18;;;;;;;4.53;4.13;;;;;;;;;;5092463;28;20032;-70
2023/12/25 09:13:45;;;;;;;6.03;5.43;;;;;;;;;;5077067;28;20035;-71
2023/12/25 09:16:10;;;;;;;5.93;5.43;;;;;;;;;;5097339;28;20027;-71
2023/12/25 09:18:36;;;;;;;4.22;3.90;;;;;;;;;;5058567;28;20103;-69
2023/12/25 09:21:02;;;;;;;4.57;4.28;;;;;;;;;;5088922;28;20628;-70
2023/12/25 09:23:28;;;;;;;6.95;5.82;;;;;;;;;;5090565;28;20518;-70
2023/12/25 09:25:54;;;;;;;5.00;4.60;;;;;;;;;;5085038;28;20035;-70
2023/12/25 09:28:20;;;;;;;6.22;5.20;;;;;;;;;;5092126;28;20032;-71
2023/12/25 09:30:46;;;;;;;5.47;5.07;;;;;;;;;;5092906;27;20411;-69
2023/12/25 09:33:12;;;;;;;5.57;5.07;;;;;;;;;;5086271;28;20043;-72
2023/12/25 09:35:38;;;;;;;5.78;5.15;;;;;;;;;;5088659;28;20495;-70
2023/12/25 09:38:04;;;;;;;5.35;4.65;;;;;;;;;;5090417;28;20020;-71
2023/12/25 09:40:30;;;;;;;6.68;4.35;;;;;;;;;;5089049;28;20135;-70
2023/12/25 09:43:01;;;;;;;3.65;3.35;;;;;;;;;;5088192;28;20040;-70
2023/12/25 09:45:32;;;;;;;3.47;3.28;;;;;;;;;;5085846;28;20500;-71
2023/12/25 09:47:57;;;;;;;4.40;3.95;;;;;;;;;;5088279;28;20043;-71
2023/12/25 09:50:23;;;;;;;4.55;4.15;;;;;;;;;;5088470;28;20032;-69
2023/12/25 09:52:49;;;;;;;4.45;4.13;;;;;;;;;;5088592;28;20036;-70
2023/12/25 09:55:15;;;;;;;3.42;3.20;;;;;;;;;;5088842;28;20039;-69
2023/12/25 09:57:41;;;;;;;5.40;3.92;;;;;;;;;;5088195;28;20063;-70
2023/12/25 10:00:08;;;;;;;4.63;4.22;;;;;;;;;;5088993;28;20036;-69
2023/12/25 10:02:36;;;;;;;3.70;3.40;;;;;;;;;;5087067;28;20036;-69
2023/12/25 10:05:02;;;;;;;3.45;3.20;;;;;;;;;;5088851;28;20126;-69
2023/12/25 10:07:29;;;;;;;4.50;3.85;;;;;;;;;;5088264;28;20266;-69
2023/12/25 10:09:54;;;;;;;3.53;3.33;;;;;;;;;;5087400;28;20850;-69
2023/12/25 10:12:20;;;;;;;3.88;3.58;;;;;;;;;;5070769;28;20066;-70
2023/12/25 10:14:46;;;;;;;4.93;4.55;;;;;;;;;;5086810;28;20047;-70
2023/12/25 10:17:12;;;;;;;3.97;3.67;;;;;;;;;;5087625;28;20115;-70
2023/12/25 10:19:50;;;;;;;4.50;4.20;;;;;;;;;;5088255;28;20112;-70
2023/12/25 10:22:37;;;;;;;5.65;5.15;;;;;;;;;;5088325;28;20028;-70
2023/12/25 10:25:05;;;;;;;5.40;4.90;;;;;;;;;;5083781;28;20071;-70
2023/12/25 10:27:32;;;;;;;4.22;3.90;;;;;;;;;;5087275;28;20136;-70
2023/12/25 10:29:59;;;;;;;4.90;3.40;;;;;;;;;;5084892;28;20060;-71
2023/12/25 10:32:25;;;;;;;3.65;3.20;;;;;;;;;;5115936;27;20122;-68
2023/12/25 10:34:51;;;;;;;4.00;3.70;;;;;;;;;;5130194;27;20054;-71
2023/12/25 10:37:17;;;;;;;3.70;3.50;;;;;;;;;;5080837;27;20035;-70
2023/12/25 10:39:43;;;;;;;3.40;3.20;;;;;;;;;;5128248;27;20138;-71
2023/12/25 10:42:09;;;;;;;3.15;2.95;;;;;;;;;;5108566;27;20474;-69
2023/12/25 10:44:36;;;;;;;3.63;3.33;;;;;;;;;;5126009;27;20699;-71
2023/12/25 10:47:02;;;;;;;3.50;3.20;;;;;;;;;;5114288;27;20498;-70
2023/12/25 10:49:29;;;;;;;4.18;3.78;;;;;;;;;;5127689;27;20046;-70
2023/12/25 10:51:54;;;;;;;3.80;3.50;;;;;;;;;;5111603;27;20027;-71
2023/12/25 10:54:20;;;;;;;3.78;3.47;;;;;;;;;;5081065;27;20050;-70
2023/12/25 10:56:46;;;;;;;3.67;2.67;;;;;;;;;;5110969;27;20023;-70
2023/12/25 10:59:15;;;;;;;4.15;3.75;;;;;;;;;;5126499;27;20098;-70
2023/12/25 11:01:45;;;;;;;3.78;3.47;;;;;;;;;;5115591;27;20490;-69
2023/12/25 11:04:12;;;;;;;4.28;3.95;;;;;;;;;;5114021;27;20079;-70
2023/12/25 11:06:38;;;;;;;3.97;3.58;;;;;;;;;;5107476;27;20575;-69
2023/12/25 11:09:05;;;;;;;4.28;3.97;;;;;;;;;;5127393;27;20518;-70
2023/12/25 11:11:30;;;;;;;3.85;3.53;;;;;;;;;;5126876;27;20151;-71
2023/12/25 11:13:57;;;;;;;4.30;3.20;;;;;;;;;;5115810;27;20506;-69
2023/12/25 11:16:23;;;;;;;4.13;3.83;;;;;;;;;;5097861;27;20046;-69
2023/12/25 11:18:49;;;;;;;4.45;4.05;;;;;;;;;;5127605;27;20087;-70
2023/12/25 11:21:19;;;;;;;4.15;3.75;;;;;;;;;;5116500;27;20035;-69
2023/12/25 11:23:47;;;;;;;4.40;3.97;;;;;;;;;;5111878;27;20035;-70
2023/12/25 11:26:12;;;;;;;4.72;4.32;;;;;;;;;;5111160;27;20027;-70
2023/12/25 11:28:41;;;;;;;3.10;2.90;;;;;;;;;;5108642;27;20030;-69
2023/12/25 11:31:07;;;;;;;3.83;3.53;;;;;;;;;;5127246;27;20055;-70
2023/12/25 11:33:43;;;;;;;4.75;4.28;;;;;;;;;;5109114;27;20502;-69
2023/12/25 11:36:13;;;;;;;5.82;4.22;;;;;;;;;;5125905;27;20074;-71
2023/12/25 11:38:43;;;;;;;4.53;4.13;;;;;;;;;;5125344;27;20597;-70
2023/12/25 11:41:13;;;;;;;3.40;3.10;;;;;;;;;;5109956;28;20038;-70
2023/12/25 11:43:39;;;;;;;4.03;3.73;;;;;;;;;;5125844;27;20035;-70
2023/12/25 11:46:05;;;;;;;3.67;2.83;;;;;;;;;;5089717;27;20285;-69
2023/12/25 11:48:31;;;;;;;3.20;3.00;;;;;;;;;;5111533;27;20026;-70
2023/12/25 11:51:01;;;;;;;4.70;4.30;;;;;;;;;;5128158;27;20091;-71
2023/12/25 11:53:36;;;;;;;3.50;3.30;;;;;;;;;;5091761;28;20038;-69
2023/12/25 11:56:02;;;;;;;3.88;3.58;;;;;;;;;;5107144;28;20055;-70
2023/12/25 11:58:30;;;;;;;5.05;4.18;;;;;;;;;;5125864;27;20070;-69
2023/12/25 12:00:55;;;;;;;4.30;3.92;;;;;;;;;;5127737;27;20602;-70
2023/12/25 12:03:21;;;;;;;4.05;3.75;;;;;;;;;;5109022;28;20121;-71
2023/12/25 12:05:47;;;;;;;3.75;3.45;;;;;;;;;;5126948;27;20027;-70
2023/12/25 12:08:13;;;;;;;4.05;3.38;;;;;;;;;;5118220;28;20088;-70
2023/12/25 12:10:39;;;;;;;4.57;4.15;;;;;;;;;;5127000;27;20031;-70
2023/12/25 12:13:04;;;;;;;3.90;3.60;;;;;;;;;;5127549;27;20035;-71
2023/12/25 12:15:30;;;;;;;3.28;3.08;;;;;;;;;;5127482;27;20035;-69
2023/12/25 12:17:56;;;;;;;3.50;3.20;;;;;;;;;;5115224;27;20077;-70
2023/12/25 12:20:22;;;;;;;3.20;3.00;;;;;;;;;;5115416;27;20073;-70
2023/12/25 12:22:48;;;;;;;3.38;3.00;;;;;;;;;;5112157;27;20034;-70
2023/12/25 12:25:14;;;;;;;4.13;3.45;;;;;;;;;;5127408;27;20035;-70
2023/12/25 12:27:40;;;;;;;3.47;3.17;;;;;;;;;;5116791;27;20023;-70
2023/12/25 12:30:06;;;;;;;2.58;2.45;;;;;;;;;;5099472;27;20049;-71
2023/12/25 12:32:32;;;;;;;2.95;2.63;;;;;;;;;;5114268;27;20043;-70
2023/12/25 12:34:58;;;;;;;3.38;3.08;;;;;;;;;;5115373;27;20124;-69
2023/12/25 12:37:25;;;;;;;3.50;3.30;;;;;;;;;;5125317;27;20379;-71
2023/12/25 12:39:52;;;;;;;2.90;2.70;;;;;;;;;;5124955;27;20031;-70
2023/12/25 12:42:18;;;;;;;3.00;2.80;;;;;;;;;;5114231;27;20031;-71
2023/12/25 12:44:48;;;;;;;2.58;2.38;;;;;;;;;;5099985;27;20080;-71
2023/12/25 12:47:15;;;;;;;2.20;2.10;;;;;;;;;;5127980;27;20039;-70
2023/12/25 12:49:41;;;;;;;2.42;2.33;;;;;;;;;;5117158;27;20046;-69
2023/12/25 12:52:08;;;;;;;2.28;2.17;;;;;;;;;;5127580;27;20414;-70
2023/12/25 12:54:34;;;;;;;2.47;2.35;;;;;;;;;;5127305;27;20154;-70
2023/12/25 12:57:00;;;;;;;3.42;2.67;;;;;;;;;;5108744;27;20637;-70
2023/12/25 12:59:25;;;;;;;3.50;3.20;;;;;;;;;;5129375;27;20019;-70
2023/12/25 13:01:52;;;;;;;3.30;2.95;;;;;;;;;;5116315;27;20081;-70
2023/12/25 13:04:20;;;;;;;3.63;3.33;;;;;;;;;;5101650;27;20050;-71
2023/12/25 13:06:46;;;;;;;3.03;2.83;;;;;;;;;;5112201;27;20407;-72
2023/12/25 13:09:12;;;;;;;2.38;2.22;;;;;;;;;;5095780;27;20035;-71
2023/12/25 13:11:37;;;;;;;2.80;2.67;;;;;;;;;;5130151;27;20460;-70
2023/12/25 13:14:03;;;;;;;3.72;3.17;;;;;;;;;;5130688;27;20058;-70
2023/12/25 13:16:29;;;;;;;3.03;2.83;;;;;;;;;;5115237;27;20383;-69
2023/12/25 13:18:55;;;;;;;3.03;2.80;;;;;;;;;;5131341;27;20031;-69
2023/12/25 13:21:21;;;;;;;3.17;2.88;;;;;;;;;;5117616;27;20023;-69
2023/12/25 13:23:48;;;;;;;2.83;2.63;;;;;;;;;;5128482;27;20113;-70
2023/12/25 13:26:14;;;;;;;2.75;2.58;;;;;;;;;;5112468;27;20023;-70
2023/12/25 13:28:41;;;;;;;2.72;2.55;;;;;;;;;;5130456;27;20037;-69
2023/12/25 13:31:07;;;;;;;2.58;2.47;;;;;;;;;;5131659;27;20055;-70
2023/12/25 13:33:33;;;;;;;2.30;2.20;;;;;;;;;;5130218;27;20043;-69
2023/12/25 13:35:59;;;;;;;2.58;2.47;;;;;;;;;;5095143;27;20023;-70
2023/12/25 13:38:25;;;;;;;2.45;2.30;;;;;;;;;;5111475;27;20487;-69
2023/12/25 13:40:53;;;;;;;2.67;2.50;;;;;;;;;;5111953;27;20042;-71
2023/12/25 13:43:19;;;;;;;2.80;2.60;;;;;;;;;;5130784;27;20105;-69
2023/12/25 13:45:45;;;;;;;3.33;3.13;;;;;;;;;;5129108;27;20506;-70
2023/12/25 13:48:11;;;;;;;2.38;2.17;;;;;;;;;;5112015;27;20035;-70
2023/12/25 13:50:38;;;;;;;4.22;2.83;;;;;;;;;;5129823;27;20034;-70
2023/12/25 13:53:03;;;;;;;2.28;2.17;;;;;;;;;;5127675;27;20134;-69
2023/12/25 13:55:29;;;;;;;2.85;2.75;;;;;;;;;;5130100;27;20360;-70
2023/12/25 13:57:55;;;;;;;3.53;3.22;;;;;;;;;;5130938;27;20148;-70
2023/12/25 14:00:21;;;;;;;3.25;2.95;;;;;;;;;;5111687;27;20076;-69
2023/12/25 14:02:49;;;;;;;2.35;2.25;;;;;;;;;;5094186;27;20039;-69
2023/12/25 14:05:14;;;;;;;2.55;2.45;;;;;;;;;;5129921;27;20669;-71
2023/12/25 14:07:42;;;;;;;2.58;2.47;;;;;;;;;;5110899;27;20057;-70
2023/12/25 14:10:08;;;;;;;2.63;2.50;;;;;;;;;;5111986;27;20035;-69
2023/12/25 14:12:34;;;;;;;2.90;2.70;;;;;;;;;;5129749;27;20076;-70
2023/12/25 14:15:01;;;;;;;2.45;2.35;;;;;;;;;;5129552;27;20039;-69
2023/12/25 14:17:28;;;;;;;2.38;2.28;;;;;;;;;;5094117;27;20098;-70
2023/12/25 14:19:53;;;;;;;2.53;2.42;;;;;;;;;;5111055;27;20119;-70
2023/12/25 14:22:19;;;;;;;2.80;2.60;;;;;;;;;;5111025;27;20126;-70
2023/12/25 14:24:45;;;;;;;2.92;2.72;;;;;;;;;;5130172;27;20593;-71
2023/12/25 14:27:11;;;;;;;3.28;3.03;;;;;;;;;;5092387;27;20560;-70
2023/12/25 14:29:38;;;;;;;2.97;2.78;;;;;;;;;;5111199;27;21586;-70
2023/12/25 14:32:04;;;;;;;2.60;2.50;;;;;;;;;;5108486;27;20054;-71
2023/12/25 14:34:34;;;;;;;3.88;3.30;;;;;;;;;;5110846;27;20042;-70
2023/12/25 14:37:00;;;;;;;2.63;2.42;;;;;;;;;;5093805;27;20030;-70